sensor_id;sensor_type;location;lat;lon;timestamp;P1;durP1;ratioP1;P2;durP2;ratioP2
15936;SDS011;9163;48.818;8.976;2023-10-19T00:00:52;12.47;;;8.70;;
15936;SDS011;9163;48.818;8.976;2023-10-19T00:03:21;10.43;;;8.20;;
15936;SDS011;9163;48.818;8.976;2023-10-19T00:05:51;10.40;;;7.87;;
15936;SDS011;9163;48.818;8.976;2023-10-19T00:08:17;8.80;;;7.43;;
15936;SDS011;9163;48.818;8.976;2023-10-19T00:10:46;10.23;;;8.10;;
15936;SDS011;9163;48.818;8.976;2023-10-19T00:13:15;9.77;;;8.57;;
15936;SDS011;9163;48.818;8.976;2023-10-19T00:15:44;11.27;;;8.30;;
15936;SDS011;9163;48.818;8.976;2023-10-19T00:18:13;10.67;;;8.43;;
15936;SDS011;9163;48.818;8.976;2023-10-19T00:20:51;9.47;;;8.30;;
15936;SDS011;9163;48.818;8.976;2023-10-19T00:23:19;13.17;;;9.20;;
15936;SDS011;9163;48.818;8.976;2023-10-19T00:25:54;11.60;;;9.43;;
15936;SDS011;9163;48.818;8.976;2023-10-19T00:28:22;12.33;;;9.10;;
15936;SDS011;9163;48.818;8.976;2023-10-19T00:30:51;14.13;;;9.57;;
15936;SDS011;9163;48.818;8.976;2023-10-19T00:33:19;12.93;;;9.40;;
15936;SDS011;9163;48.818;8.976;2023-10-19T00:35:47;14.10;;;9.47;;
15936;SDS011;9163;48.818;8.976;2023-10-19T00:38:24;12.50;;;9.63;;
15936;SDS011;9163;48.818;8.976;2023-10-19T00:41:05;11.50;;;9.03;;
15936;SDS011;9163;48.818;8.976;2023-10-19T00:43:37;12.50;;;8.70;;
15936;SDS011;9163;48.818;8.976;2023-10-19T00:46:09;10.00;;;8.53;;
15936;SDS011;9163;48.818;8.976;2023-10-19T00:48:42;12.47;;;8.57;;
15936;SDS011;9163;48.818;8.976;2023-10-19T00:51:12;10.13;;;8.67;;
15936;SDS011;9163;48.818;8.976;2023-10-19T00:53:53;9.77;;;7.73;;
15936;SDS011;9163;48.818;8.976;2023-10-19T00:56:22;8.60;;;6.60;;
15936;SDS011;9163;48.818;8.976;2023-10-19T00:58:57;9.57;;;6.67;;
15936;SDS011;9163;48.818;8.976;2023-10-19T01:01:32;8.37;;;6.70;;
15936;SDS011;9163;48.818;8.976;2023-10-19T01:04:05;8.53;;;6.30;;
15936;SDS011;9163;48.818;8.976;2023-10-19T01:06:33;9.13;;;6.80;;
15936;SDS011;9163;48.818;8.976;2023-10-19T01:09:02;9.90;;;7.33;;
15936;SDS011;9163;48.818;8.976;2023-10-19T01:11:30;10.23;;;7.40;;
15936;SDS011;9163;48.818;8.976;2023-10-19T01:14:04;10.23;;;7.80;;
15936;SDS011;9163;48.818;8.976;2023-10-19T01:16:44;9.20;;;7.57;;
15936;SDS011;9163;48.818;8.976;2023-10-19T01:19:15;9.90;;;8.10;;
15936;SDS011;9163;48.818;8.976;2023-10-19T01:21:44;10.87;;;8.13;;
15936;SDS011;9163;48.818;8.976;2023-10-19T01:24:18;9.20;;;7.63;;
15936;SDS011;9163;48.818;8.976;2023-10-19T01:26:52;12.53;;;7.93;;
15936;SDS011;9163;48.818;8.976;2023-10-19T01:29:22;8.17;;;7.27;;
15936;SDS011;9163;48.818;8.976;2023-10-19T01:31:52;11.93;;;7.60;;
15936;SDS011;9163;48.818;8.976;2023-10-19T01:34:31;9.30;;;7.73;;
15936;SDS011;9163;48.818;8.976;2023-10-19T01:37:00;9.57;;;7.40;;
15936;SDS011;9163;48.818;8.976;2023-10-19T01:39:31;11.27;;;8.30;;
15936;SDS011;9163;48.818;8.976;2023-10-19T01:42:00;8.90;;;7.50;;
15936;SDS011;9163;48.818;8.976;2023-10-19T01:44:30;10.37;;;8.80;;
15936;SDS011;9163;48.818;8.976;2023-10-19T01:46:56;11.50;;;10.30;;
15936;SDS011;9163;48.818;8.976;2023-10-19T01:49:26;13.27;;;8.97;;
15936;SDS011;9163;48.818;8.976;2023-10-19T01:51:54;13.27;;;8.03;;
15936;SDS011;9163;48.818;8.976;2023-10-19T01:54:21;13.83;;;8.30;;
15936;SDS011;9163;48.818;8.976;2023-10-19T01:56:52;10.23;;;8.70;;
15936;SDS011;9163;48.818;8.976;2023-10-19T01:59:22;11.33;;;8.40;;
15936;SDS011;9163;48.818;8.976;2023-10-19T02:01:52;11.87;;;9.03;;
15936;SDS011;9163;48.818;8.976;2023-10-19T02:04:20;9.50;;;8.20;;
15936;SDS011;9163;48.818;8.976;2023-10-19T02:06:48;10.23;;;8.03;;
15936;SDS011;9163;48.818;8.976;2023-10-19T02:09:17;10.67;;;9.03;;
15936;SDS011;9163;48.818;8.976;2023-10-19T02:11:47;9.50;;;7.80;;
15936;SDS011;9163;48.818;8.976;2023-10-19T02:14:16;9.83;;;7.67;;
15936;SDS011;9163;48.818;8.976;2023-10-19T02:16:45;9.60;;;7.33;;
15936;SDS011;9163;48.818;8.976;2023-10-19T02:19:13;9.07;;;6.77;;
15936;SDS011;9163;48.818;8.976;2023-10-19T02:21:41;10.33;;;7.10;;
15936;SDS011;9163;48.818;8.976;2023-10-19T02:24:08;8.10;;;6.63;;
15936;SDS011;9163;48.818;8.976;2023-10-19T02:26:40;8.80;;;6.40;;
15936;SDS011;9163;48.818;8.976;2023-10-19T02:29:06;9.17;;;6.60;;
15936;SDS011;9163;48.818;8.976;2023-10-19T02:31:36;8.67;;;6.43;;
15936;SDS011;9163;48.818;8.976;2023-10-19T02:34:05;8.13;;;6.50;;
15936;SDS011;9163;48.818;8.976;2023-10-19T02:36:36;9.17;;;5.90;;
15936;SDS011;9163;48.818;8.976;2023-10-19T02:39:03;9.13;;;7.07;;
15936;SDS011;9163;48.818;8.976;2023-10-19T02:41:34;8.97;;;6.70;;
15936;SDS011;9163;48.818;8.976;2023-10-19T02:44:01;10.40;;;6.90;;
15936;SDS011;9163;48.818;8.976;2023-10-19T02:46:33;8.30;;;6.87;;
15936;SDS011;9163;48.818;8.976;2023-10-19T02:49:01;8.20;;;6.97;;
15936;SDS011;9163;48.818;8.976;2023-10-19T02:51:35;7.80;;;6.50;;
15936;SDS011;9163;48.818;8.976;2023-10-19T02:54:02;9.60;;;7.27;;
15936;SDS011;9163;48.818;8.976;2023-10-19T02:56:30;7.53;;;6.50;;
15936;SDS011;9163;48.818;8.976;2023-10-19T02:58:57;9.37;;;6.70;;
15936;SDS011;9163;48.818;8.976;2023-10-19T03:01:29;9.10;;;6.83;;
15936;SDS011;9163;48.818;8.976;2023-10-19T03:03:59;11.50;;;7.93;;
15936;SDS011;9163;48.818;8.976;2023-10-19T03:06:27;9.70;;;6.67;;
15936;SDS011;9163;48.818;8.976;2023-10-19T03:08:58;9.60;;;7.03;;
15936;SDS011;9163;48.818;8.976;2023-10-19T03:11:26;10.60;;;7.47;;
15936;SDS011;9163;48.818;8.976;2023-10-19T03:13:54;9.63;;;6.90;;
15936;SDS011;9163;48.818;8.976;2023-10-19T03:16:22;10.37;;;7.60;;
15936;SDS011;9163;48.818;8.976;2023-10-19T03:18:50;9.93;;;7.57;;
15936;SDS011;9163;48.818;8.976;2023-10-19T03:21:18;11.97;;;7.63;;
15936;SDS011;9163;48.818;8.976;2023-10-19T03:23:52;12.50;;;7.43;;
15936;SDS011;9163;48.818;8.976;2023-10-19T03:26:18;12.07;;;7.73;;
15936;SDS011;9163;48.818;8.976;2023-10-19T03:28:56;10.73;;;7.70;;
15936;SDS011;9163;48.818;8.976;2023-10-19T03:31:27;13.10;;;7.80;;
15936;SDS011;9163;48.818;8.976;2023-10-19T03:33:54;11.13;;;7.70;;
15936;SDS011;9163;48.818;8.976;2023-10-19T03:36:26;11.40;;;7.70;;
15936;SDS011;9163;48.818;8.976;2023-10-19T03:38:53;9.03;;;7.23;;
15936;SDS011;9163;48.818;8.976;2023-10-19T03:41:25;10.23;;;8.20;;
15936;SDS011;9163;48.818;8.976;2023-10-19T03:43:53;10.40;;;8.17;;
15936;SDS011;9163;48.818;8.976;2023-10-19T03:46:22;10.10;;;8.47;;
15936;SDS011;9163;48.818;8.976;2023-10-19T03:48:54;11.90;;;9.40;;
15936;SDS011;9163;48.818;8.976;2023-10-19T03:51:26;12.27;;;9.03;;
15936;SDS011;9163;48.818;8.976;2023-10-19T03:54:04;13.37;;;9.00;;
15936;SDS011;9163;48.818;8.976;2023-10-19T03:56:48;11.47;;;9.20;;
15936;SDS011;9163;48.818;8.976;2023-10-19T03:59:15;12.03;;;9.00;;
15936;SDS011;9163;48.818;8.976;2023-10-19T04:01:43;13.53;;;9.43;;
15936;SDS011;9163;48.818;8.976;2023-10-19T04:04:11;12.37;;;8.93;;
15936;SDS011;9163;48.818;8.976;2023-10-19T04:06:40;10.50;;;8.40;;
15936;SDS011;9163;48.818;8.976;2023-10-19T04:09:12;13.50;;;8.33;;
15936;SDS011;9163;48.818;8.976;2023-10-19T04:11:43;13.10;;;8.93;;
15936;SDS011;9163;48.818;8.976;2023-10-19T04:14:16;13.70;;;9.03;;
15936;SDS011;9163;48.818;8.976;2023-10-19T04:16:45;13.77;;;9.20;;
15936;SDS011;9163;48.818;8.976;2023-10-19T04:19:14;11.87;;;9.23;;
15936;SDS011;9163;48.818;8.976;2023-10-19T04:21:43;10.80;;;9.17;;
15936;SDS011;9163;48.818;8.976;2023-10-19T04:24:12;11.07;;;9.20;;
15936;SDS011;9163;48.818;8.976;2023-10-19T04:26:40;10.70;;;9.07;;
15936;SDS011;9163;48.818;8.976;2023-10-19T04:29:08;10.47;;;9.37;;
15936;SDS011;9163;48.818;8.976;2023-10-19T04:31:37;12.77;;;9.57;;
15936;SDS011;9163;48.818;8.976;2023-10-19T04:34:13;10.77;;;8.60;;
15936;SDS011;9163;48.818;8.976;2023-10-19T04:36:43;11.83;;;9.40;;
15936;SDS011;9163;48.818;8.976;2023-10-19T04:39:10;11.37;;;9.47;;
15936;SDS011;9163;48.818;8.976;2023-10-19T04:41:39;16.07;;;12.70;;
15936;SDS011;9163;48.818;8.976;2023-10-19T04:44:06;13.90;;;9.50;;
15936;SDS011;9163;48.818;8.976;2023-10-19T04:46:34;11.20;;;9.70;;
15936;SDS011;9163;48.818;8.976;2023-10-19T04:49:01;11.43;;;9.20;;
15936;SDS011;9163;48.818;8.976;2023-10-19T04:51:29;10.50;;;8.83;;
15936;SDS011;9163;48.818;8.976;2023-10-19T04:53:58;12.03;;;8.97;;
15936;SDS011;9163;48.818;8.976;2023-10-19T04:56:25;12.00;;;9.40;;
15936;SDS011;9163;48.818;8.976;2023-10-19T04:58:53;12.17;;;8.37;;
15936;SDS011;9163;48.818;8.976;2023-10-19T05:01:20;12.97;;;9.53;;
15936;SDS011;9163;48.818;8.976;2023-10-19T05:03:47;10.93;;;8.80;;
15936;SDS011;9163;48.818;8.976;2023-10-19T05:06:14;12.63;;;9.43;;
15936;SDS011;9163;48.818;8.976;2023-10-19T05:08:41;13.70;;;9.93;;
15936;SDS011;9163;48.818;8.976;2023-10-19T05:11:10;13.80;;;10.13;;
15936;SDS011;9163;48.818;8.976;2023-10-19T05:13:37;14.47;;;10.33;;
15936;SDS011;9163;48.818;8.976;2023-10-19T05:16:05;12.33;;;10.33;;
15936;SDS011;9163;48.818;8.976;2023-10-19T05:18:33;12.07;;;9.77;;
15936;SDS011;9163;48.818;8.976;2023-10-19T05:21:00;12.77;;;10.00;;
15936;SDS011;9163;48.818;8.976;2023-10-19T05:23:27;13.13;;;9.40;;
15936;SDS011;9163;48.818;8.976;2023-10-19T05:25:59;13.13;;;9.77;;
15936;SDS011;9163;48.818;8.976;2023-10-19T05:28:29;12.20;;;8.67;;
15936;SDS011;9163;48.818;8.976;2023-10-19T05:30:57;13.83;;;9.30;;
15936;SDS011;9163;48.818;8.976;2023-10-19T05:33:24;12.57;;;9.37;;
15936;SDS011;9163;48.818;8.976;2023-10-19T05:35:54;13.27;;;9.03;;
15936;SDS011;9163;48.818;8.976;2023-10-19T05:38:22;11.43;;;8.97;;
15936;SDS011;9163;48.818;8.976;2023-10-19T05:40:49;12.07;;;9.33;;
15936;SDS011;9163;48.818;8.976;2023-10-19T05:43:17;11.43;;;9.17;;
15936;SDS011;9163;48.818;8.976;2023-10-19T05:45:46;12.50;;;9.00;;
15936;SDS011;9163;48.818;8.976;2023-10-19T05:48:15;16.07;;;9.97;;
15936;SDS011;9163;48.818;8.976;2023-10-19T05:50:42;12.77;;;8.90;;
15936;SDS011;9163;48.818;8.976;2023-10-19T05:53:09;13.30;;;9.23;;
15936;SDS011;9163;48.818;8.976;2023-10-19T05:55:37;11.83;;;8.43;;
15936;SDS011;9163;48.818;8.976;2023-10-19T05:58:05;11.13;;;9.23;;
15936;SDS011;9163;48.818;8.976;2023-10-19T06:00:32;13.03;;;9.33;;
15936;SDS011;9163;48.818;8.976;2023-10-19T06:03:01;11.43;;;9.00;;
15936;SDS011;9163;48.818;8.976;2023-10-19T06:05:30;10.77;;;9.20;;
15936;SDS011;9163;48.818;8.976;2023-10-19T06:07:57;12.40;;;8.87;;
15936;SDS011;9163;48.818;8.976;2023-10-19T06:10:27;11.87;;;9.13;;
15936;SDS011;9163;48.818;8.976;2023-10-19T06:12:55;12.20;;;8.63;;
15936;SDS011;9163;48.818;8.976;2023-10-19T06:15:22;10.10;;;8.00;;
15936;SDS011;9163;48.818;8.976;2023-10-19T06:17:50;11.50;;;8.47;;
15936;SDS011;9163;48.818;8.976;2023-10-19T06:20:19;11.07;;;7.83;;
15936;SDS011;9163;48.818;8.976;2023-10-19T06:22:49;12.53;;;8.23;;
15936;SDS011;9163;48.818;8.976;2023-10-19T06:25:17;10.37;;;8.03;;
15936;SDS011;9163;48.818;8.976;2023-10-19T06:27:45;9.90;;;7.67;;
15936;SDS011;9163;48.818;8.976;2023-10-19T06:30:13;10.47;;;7.90;;
15936;SDS011;9163;48.818;8.976;2023-10-19T06:32:47;11.73;;;7.50;;
15936;SDS011;9163;48.818;8.976;2023-10-19T06:35:16;9.47;;;7.97;;
15936;SDS011;9163;48.818;8.976;2023-10-19T06:37:45;10.00;;;7.83;;
15936;SDS011;9163;48.818;8.976;2023-10-19T06:40:12;11.20;;;7.67;;
15936;SDS011;9163;48.818;8.976;2023-10-19T06:42:42;11.00;;;7.80;;
15936;SDS011;9163;48.818;8.976;2023-10-19T06:45:10;10.50;;;7.87;;
15936;SDS011;9163;48.818;8.976;2023-10-19T06:47:39;11.33;;;7.60;;
15936;SDS011;9163;48.818;8.976;2023-10-19T06:50:08;12.60;;;7.63;;
15936;SDS011;9163;48.818;8.976;2023-10-19T06:52:36;9.77;;;7.23;;
15936;SDS011;9163;48.818;8.976;2023-10-19T06:55:06;9.43;;;6.97;;
15936;SDS011;9163;48.818;8.976;2023-10-19T06:57:39;9.03;;;6.87;;
15936;SDS011;9163;48.818;8.976;2023-10-19T07:00:09;9.27;;;6.60;;
15936;SDS011;9163;48.818;8.976;2023-10-19T07:02:40;7.83;;;6.60;;
15936;SDS011;9163;48.818;8.976;2023-10-19T07:05:08;10.43;;;6.67;;
15936;SDS011;9163;48.818;8.976;2023-10-19T07:07:37;10.87;;;6.77;;
15936;SDS011;9163;48.818;8.976;2023-10-19T07:10:08;12.97;;;6.73;;
15936;SDS011;9163;48.818;8.976;2023-10-19T07:12:37;10.60;;;6.53;;
15936;SDS011;9163;48.818;8.976;2023-10-19T07:15:07;11.03;;;6.97;;
15936;SDS011;9163;48.818;8.976;2023-10-19T07:17:39;9.70;;;6.47;;
15936;SDS011;9163;48.818;8.976;2023-10-19T07:20:07;10.30;;;6.70;;
15936;SDS011;9163;48.818;8.976;2023-10-19T07:22:47;9.60;;;6.73;;
15936;SDS011;9163;48.818;8.976;2023-10-19T07:25:16;8.60;;;6.20;;
15936;SDS011;9163;48.818;8.976;2023-10-19T07:27:46;11.37;;;6.27;;
15936;SDS011;9163;48.818;8.976;2023-10-19T07:30:13;9.83;;;6.60;;
15936;SDS011;9163;48.818;8.976;2023-10-19T07:32:46;9.40;;;6.50;;
15936;SDS011;9163;48.818;8.976;2023-10-19T07:35:17;11.63;;;6.20;;
15936;SDS011;9163;48.818;8.976;2023-10-19T07:37:45;8.33;;;5.80;;
15936;SDS011;9163;48.818;8.976;2023-10-19T07:40:13;8.20;;;5.40;;
15936;SDS011;9163;48.818;8.976;2023-10-19T07:42:43;7.70;;;5.30;;
15936;SDS011;9163;48.818;8.976;2023-10-19T07:45:11;7.10;;;5.37;;
15936;SDS011;9163;48.818;8.976;2023-10-19T07:47:39;8.43;;;5.83;;
15936;SDS011;9163;48.818;8.976;2023-10-19T07:50:07;6.47;;;5.40;;
15936;SDS011;9163;48.818;8.976;2023-10-19T07:52:38;6.40;;;4.80;;
15936;SDS011;9163;48.818;8.976;2023-10-19T07:55:05;8.43;;;4.83;;
15936;SDS011;9163;48.818;8.976;2023-10-19T07:57:35;9.03;;;4.90;;
15936;SDS011;9163;48.818;8.976;2023-10-19T08:00:03;7.37;;;4.90;;
15936;SDS011;9163;48.818;8.976;2023-10-19T08:02:31;6.90;;;4.30;;
15936;SDS011;9163;48.818;8.976;2023-10-19T08:04:59;7.33;;;4.87;;
15936;SDS011;9163;48.818;8.976;2023-10-19T08:07:28;7.27;;;4.40;;
15936;SDS011;9163;48.818;8.976;2023-10-19T08:09:55;6.97;;;3.93;;
15936;SDS011;9163;48.818;8.976;2023-10-19T08:12:24;6.83;;;4.27;;
15936;SDS011;9163;48.818;8.976;2023-10-19T08:14:53;6.40;;;3.93;;
15936;SDS011;9163;48.818;8.976;2023-10-19T08:17:21;5.90;;;4.00;;
15936;SDS011;9163;48.818;8.976;2023-10-19T08:19:48;7.13;;;4.10;;
15936;SDS011;9163;48.818;8.976;2023-10-19T08:22:16;4.60;;;3.43;;
15936;SDS011;9163;48.818;8.976;2023-10-19T08:24:43;4.10;;;3.10;;
15936;SDS011;9163;48.818;8.976;2023-10-19T08:27:11;6.30;;;3.50;;
15936;SDS011;9163;48.818;8.976;2023-10-19T08:29:38;4.70;;;2.97;;
15936;SDS011;9163;48.818;8.976;2023-10-19T08:32:07;5.37;;;3.10;;
15936;SDS011;9163;48.818;8.976;2023-10-19T08:34:35;5.20;;;3.00;;
15936;SDS011;9163;48.818;8.976;2023-10-19T08:37:02;4.77;;;3.20;;
15936;SDS011;9163;48.818;8.976;2023-10-19T08:39:30;4.77;;;3.20;;
15936;SDS011;9163;48.818;8.976;2023-10-19T08:42:01;4.50;;;3.40;;
15936;SDS011;9163;48.818;8.976;2023-10-19T08:44:29;4.17;;;3.03;;
15936;SDS011;9163;48.818;8.976;2023-10-19T08:46:57;4.83;;;3.23;;
15936;SDS011;9163;48.818;8.976;2023-10-19T08:49:26;6.70;;;3.40;;
15936;SDS011;9163;48.818;8.976;2023-10-19T08:51:54;5.27;;;3.40;;
15936;SDS011;9163;48.818;8.976;2023-10-19T08:54:22;5.47;;;3.27;;
15936;SDS011;9163;48.818;8.976;2023-10-19T08:56:51;6.53;;;3.17;;
15936;SDS011;9163;48.818;8.976;2023-10-19T08:59:18;5.33;;;2.80;;
15936;SDS011;9163;48.818;8.976;2023-10-19T09:01:45;4.60;;;3.10;;
15936;SDS011;9163;48.818;8.976;2023-10-19T09:04:14;4.67;;;2.90;;
15936;SDS011;9163;48.818;8.976;2023-10-19T09:06:43;3.93;;;3.00;;
15936;SDS011;9163;48.818;8.976;2023-10-19T09:09:11;4.63;;;3.00;;
15936;SDS011;9163;48.818;8.976;2023-10-19T09:11:42;4.27;;;2.73;;
15936;SDS011;9163;48.818;8.976;2023-10-19T09:14:09;5.50;;;2.70;;
15936;SDS011;9163;48.818;8.976;2023-10-19T09:16:38;4.50;;;2.20;;
15936;SDS011;9163;48.818;8.976;2023-10-19T09:19:21;3.37;;;2.40;;
15936;SDS011;9163;48.818;8.976;2023-10-19T09:22:03;4.97;;;2.30;;
15936;SDS011;9163;48.818;8.976;2023-10-19T09:24:33;4.10;;;2.30;;
15936;SDS011;9163;48.818;8.976;2023-10-19T09:27:02;3.23;;;2.40;;
15936;SDS011;9163;48.818;8.976;2023-10-19T09:29:29;2.50;;;2.00;;
15936;SDS011;9163;48.818;8.976;2023-10-19T09:31:58;6.10;;;2.10;;
15936;SDS011;9163;48.818;8.976;2023-10-19T09:34:29;4.00;;;2.50;;
15936;SDS011;9163;48.818;8.976;2023-10-19T09:36:58;2.90;;;2.30;;
15936;SDS011;9163;48.818;8.976;2023-10-19T09:39:29;3.03;;;2.10;;
15936;SDS011;9163;48.818;8.976;2023-10-19T09:42:00;4.13;;;2.10;;
15936;SDS011;9163;48.818;8.976;2023-10-19T09:44:32;5.10;;;2.90;;
15936;SDS011;9163;48.818;8.976;2023-10-19T09:47:08;3.17;;;1.90;;
15936;SDS011;9163;48.818;8.976;2023-10-19T09:49:38;3.50;;;2.50;;
15936;SDS011;9163;48.818;8.976;2023-10-19T09:52:08;3.93;;;2.70;;
15936;SDS011;9163;48.818;8.976;2023-10-19T09:54:41;3.17;;;2.60;;
15936;SDS011;9163;48.818;8.976;2023-10-19T09:57:17;5.27;;;3.10;;
15936;SDS011;9163;48.818;8.976;2023-10-19T09:59:51;3.93;;;3.43;;
15936;SDS011;9163;48.818;8.976;2023-10-19T10:02:32;7.40;;;3.50;;
15936;SDS011;9163;48.818;8.976;2023-10-19T10:05:01;5.53;;;3.23;;
15936;SDS011;9163;48.818;8.976;2023-10-19T10:07:30;4.60;;;3.33;;
15936;SDS011;9163;48.818;8.976;2023-10-19T10:09:58;5.67;;;3.53;;
15936;SDS011;9163;48.818;8.976;2023-10-19T10:12:25;4.80;;;3.07;;
15936;SDS011;9163;48.818;8.976;2023-10-19T10:15:00;7.63;;;3.20;;
15936;SDS011;9163;48.818;8.976;2023-10-19T10:17:29;7.87;;;3.57;;
15936;SDS011;9163;48.818;8.976;2023-10-19T10:25:46;5.53;;;3.60;;
15936;SDS011;9163;48.818;8.976;2023-10-19T10:28:14;5.13;;;3.60;;
15936;SDS011;9163;48.818;8.976;2023-10-19T10:33:40;4.93;;;3.30;;
15936;SDS011;9163;48.818;8.976;2023-10-19T10:36:10;5.07;;;3.37;;
15936;SDS011;9163;48.818;8.976;2023-10-19T10:38:38;6.43;;;3.00;;
15936;SDS011;9163;48.818;8.976;2023-10-19T10:41:07;6.43;;;3.33;;
15936;SDS011;9163;48.818;8.976;2023-10-19T10:43:48;5.53;;;3.20;;
15936;SDS011;9163;48.818;8.976;2023-10-19T10:46:18;5.60;;;2.77;;
15936;SDS011;9163;48.818;8.976;2023-10-19T10:48:46;4.23;;;3.00;;
15936;SDS011;9163;48.818;8.976;2023-10-19T10:51:15;3.33;;;3.00;;
15936;SDS011;9163;48.818;8.976;2023-10-19T10:53:42;5.23;;;3.10;;
15936;SDS011;9163;48.818;8.976;2023-10-19T10:56:11;5.13;;;3.13;;
15936;SDS011;9163;48.818;8.976;2023-10-19T10:58:38;5.77;;;3.13;;
15936;SDS011;9163;48.818;8.976;2023-10-19T11:01:06;4.57;;;2.87;;
15936;SDS011;9163;48.818;8.976;2023-10-19T11:03:33;3.97;;;2.90;;
15936;SDS011;9163;48.818;8.976;2023-10-19T11:06:04;4.27;;;2.90;;
15936;SDS011;9163;48.818;8.976;2023-10-19T11:08:33;4.87;;;2.90;;
15936;SDS011;9163;48.818;8.976;2023-10-19T11:11:02;3.73;;;2.63;;
15936;SDS011;9163;48.818;8.976;2023-10-19T11:13:32;3.47;;;2.30;;
15936;SDS011;9163;48.818;8.976;2023-10-19T11:16:02;2.73;;;2.30;;
15936;SDS011;9163;48.818;8.976;2023-10-19T11:18:32;3.70;;;2.40;;
15936;SDS011;9163;48.818;8.976;2023-10-19T11:21:03;4.30;;;2.23;;
15936;SDS011;9163;48.818;8.976;2023-10-19T11:23:36;3.17;;;2.03;;
15936;SDS011;9163;48.818;8.976;2023-10-19T11:26:04;4.70;;;2.33;;
15936;SDS011;9163;48.818;8.976;2023-10-19T11:28:33;4.47;;;2.10;;
15936;SDS011;9163;48.818;8.976;2023-10-19T11:31:11;4.80;;;2.27;;
15936;SDS011;9163;48.818;8.976;2023-10-19T11:33:40;4.93;;;2.50;;
15936;SDS011;9163;48.818;8.976;2023-10-19T11:36:08;5.53;;;2.73;;
15936;SDS011;9163;48.818;8.976;2023-10-19T11:38:40;4.37;;;2.30;;
15936;SDS011;9163;48.818;8.976;2023-10-19T11:41:09;5.70;;;3.30;;
15936;SDS011;9163;48.818;8.976;2023-10-19T11:43:38;7.13;;;3.00;;
15936;SDS011;9163;48.818;8.976;2023-10-19T11:46:06;3.13;;;2.70;;
15936;SDS011;9163;48.818;8.976;2023-10-19T11:48:34;4.87;;;2.90;;
15936;SDS011;9163;48.818;8.976;2023-10-19T11:51:02;4.70;;;2.60;;
15936;SDS011;9163;48.818;8.976;2023-10-19T11:53:31;4.90;;;2.60;;
15936;SDS011;9163;48.818;8.976;2023-10-19T11:56:00;5.60;;;2.80;;
15936;SDS011;9163;48.818;8.976;2023-10-19T11:58:29;5.33;;;2.80;;
15936;SDS011;9163;48.818;8.976;2023-10-19T12:00:59;4.17;;;2.60;;
15936;SDS011;9163;48.818;8.976;2023-10-19T12:03:26;7.37;;;2.70;;
15936;SDS011;9163;48.818;8.976;2023-10-19T12:05:54;3.97;;;2.73;;
15936;SDS011;9163;48.818;8.976;2023-10-19T12:08:21;3.00;;;2.53;;
15936;SDS011;9163;48.818;8.976;2023-10-19T12:10:49;3.70;;;3.20;;
15936;SDS011;9163;48.818;8.976;2023-10-19T12:13:17;5.93;;;4.00;;
15936;SDS011;9163;48.818;8.976;2023-10-19T12:15:44;7.83;;;4.30;;
15936;SDS011;9163;48.818;8.976;2023-10-19T12:18:18;7.67;;;5.03;;
15936;SDS011;9163;48.818;8.976;2023-10-19T12:20:46;7.57;;;4.00;;
15936;SDS011;9163;48.818;8.976;2023-10-19T12:23:14;6.23;;;4.10;;
15936;SDS011;9163;48.818;8.976;2023-10-19T12:25:41;7.27;;;4.27;;
15936;SDS011;9163;48.818;8.976;2023-10-19T12:28:09;5.83;;;4.33;;
15936;SDS011;9163;48.818;8.976;2023-10-19T12:30:40;5.43;;;3.70;;
15936;SDS011;9163;48.818;8.976;2023-10-19T12:33:07;3.77;;;3.27;;
15936;SDS011;9163;48.818;8.976;2023-10-19T12:35:39;5.27;;;3.60;;
15936;SDS011;9163;48.818;8.976;2023-10-19T12:38:19;4.33;;;3.30;;
15936;SDS011;9163;48.818;8.976;2023-10-19T12:40:47;4.77;;;3.00;;
15936;SDS011;9163;48.818;8.976;2023-10-19T12:43:16;3.73;;;2.67;;
15936;SDS011;9163;48.818;8.976;2023-10-19T12:45:45;6.10;;;2.90;;
15936;SDS011;9163;48.818;8.976;2023-10-19T12:48:19;4.00;;;3.17;;
15936;SDS011;9163;48.818;8.976;2023-10-19T12:50:48;5.37;;;2.80;;
15936;SDS011;9163;48.818;8.976;2023-10-19T12:53:15;3.87;;;2.80;;
15936;SDS011;9163;48.818;8.976;2023-10-19T12:55:42;3.20;;;2.40;;
15936;SDS011;9163;48.818;8.976;2023-10-19T12:58:10;5.40;;;2.73;;
15936;SDS011;9163;48.818;8.976;2023-10-19T13:00:37;4.60;;;3.10;;
15936;SDS011;9163;48.818;8.976;2023-10-19T13:03:09;4.20;;;3.00;;
15936;SDS011;9163;48.818;8.976;2023-10-19T13:05:41;4.47;;;2.90;;
15936;SDS011;9163;48.818;8.976;2023-10-19T13:08:11;3.97;;;3.10;;
15936;SDS011;9163;48.818;8.976;2023-10-19T13:10:40;4.00;;;3.20;;
15936;SDS011;9163;48.818;8.976;2023-10-19T13:13:09;4.73;;;3.33;;
15936;SDS011;9163;48.818;8.976;2023-10-19T13:15:39;3.33;;;2.87;;
15936;SDS011;9163;48.818;8.976;2023-10-19T13:18:08;3.70;;;2.80;;
15936;SDS011;9163;48.818;8.976;2023-10-19T13:20:36;3.47;;;2.50;;
15936;SDS011;9163;48.818;8.976;2023-10-19T13:23:04;7.33;;;3.10;;
15936;SDS011;9163;48.818;8.976;2023-10-19T13:25:38;3.43;;;2.70;;
15936;SDS011;9163;48.818;8.976;2023-10-19T13:28:07;4.63;;;2.90;;
15936;SDS011;9163;48.818;8.976;2023-10-19T13:30:37;4.87;;;3.00;;
15936;SDS011;9163;48.818;8.976;2023-10-19T13:33:05;3.50;;;3.07;;
15936;SDS011;9163;48.818;8.976;2023-10-19T13:35:35;5.07;;;2.60;;
15936;SDS011;9163;48.818;8.976;2023-10-19T13:38:02;4.90;;;3.00;;
15936;SDS011;9163;48.818;8.976;2023-10-19T13:40:30;5.73;;;2.63;;
15936;SDS011;9163;48.818;8.976;2023-10-19T13:42:59;4.47;;;2.60;;
15936;SDS011;9163;48.818;8.976;2023-10-19T13:45:26;4.13;;;3.27;;
15936;SDS011;9163;48.818;8.976;2023-10-19T13:47:54;3.73;;;2.90;;
15936;SDS011;9163;48.818;8.976;2023-10-19T13:50:22;4.30;;;3.00;;
15936;SDS011;9163;48.818;8.976;2023-10-19T13:52:52;4.10;;;3.00;;
15936;SDS011;9163;48.818;8.976;2023-10-19T13:55:22;4.47;;;2.67;;
15936;SDS011;9163;48.818;8.976;2023-10-19T13:57:49;3.87;;;2.93;;
15936;SDS011;9163;48.818;8.976;2023-10-19T14:00:19;5.20;;;3.00;;
15936;SDS011;9163;48.818;8.976;2023-10-19T14:02:50;4.87;;;3.10;;
15936;SDS011;9163;48.818;8.976;2023-10-19T14:05:18;5.97;;;3.33;;
15936;SDS011;9163;48.818;8.976;2023-10-19T14:07:45;6.80;;;3.10;;
15936;SDS011;9163;48.818;8.976;2023-10-19T14:10:13;4.50;;;3.17;;
15936;SDS011;9163;48.818;8.976;2023-10-19T14:12:42;4.60;;;3.37;;
15936;SDS011;9163;48.818;8.976;2023-10-19T14:15:12;4.30;;;2.60;;
15936;SDS011;9163;48.818;8.976;2023-10-19T14:17:42;3.90;;;2.97;;
15936;SDS011;9163;48.818;8.976;2023-10-19T14:20:10;4.20;;;3.30;;
15936;SDS011;9163;48.818;8.976;2023-10-19T14:22:41;5.50;;;3.70;;
15936;SDS011;9163;48.818;8.976;2023-10-19T14:25:09;3.73;;;3.40;;
15936;SDS011;9163;48.818;8.976;2023-10-19T14:27:39;5.47;;;4.23;;
15936;SDS011;9163;48.818;8.976;2023-10-19T14:30:08;4.37;;;3.80;;
15936;SDS011;9163;48.818;8.976;2023-10-19T14:32:38;6.27;;;3.80;;
15936;SDS011;9163;48.818;8.976;2023-10-19T14:35:08;6.77;;;4.07;;
15936;SDS011;9163;48.818;8.976;2023-10-19T14:37:38;6.40;;;3.97;;
15936;SDS011;9163;48.818;8.976;2023-10-19T14:40:07;6.03;;;3.60;;
15936;SDS011;9163;48.818;8.976;2023-10-19T14:42:36;4.30;;;3.50;;
15936;SDS011;9163;48.818;8.976;2023-10-19T14:45:05;4.50;;;3.40;;
15936;SDS011;9163;48.818;8.976;2023-10-19T14:47:35;6.50;;;2.90;;
15936;SDS011;9163;48.818;8.976;2023-10-19T14:50:03;6.30;;;3.07;;
15936;SDS011;9163;48.818;8.976;2023-10-19T14:52:32;4.87;;;2.80;;
15936;SDS011;9163;48.818;8.976;2023-10-19T14:55:00;5.17;;;2.93;;
15936;SDS011;9163;48.818;8.976;2023-10-19T14:57:27;3.70;;;3.23;;
15936;SDS011;9163;48.818;8.976;2023-10-19T14:59:54;6.07;;;4.07;;
15936;SDS011;9163;48.818;8.976;2023-10-19T15:02:21;7.17;;;5.00;;
15936;SDS011;9163;48.818;8.976;2023-10-19T15:04:49;8.53;;;6.40;;
15936;SDS011;9163;48.818;8.976;2023-10-19T15:07:17;8.97;;;5.93;;
15936;SDS011;9163;48.818;8.976;2023-10-19T15:09:45;9.63;;;6.57;;
15936;SDS011;9163;48.818;8.976;2023-10-19T15:12:13;9.70;;;6.77;;
15936;SDS011;9163;48.818;8.976;2023-10-19T15:14:40;9.53;;;7.00;;
15936;SDS011;9163;48.818;8.976;2023-10-19T15:17:08;7.10;;;5.70;;